createdAt,value
2022-11-01T00:00:51.106Z,51.66
2022-11-01T00:01:51.368Z,51.68
2022-11-01T00:02:51.250Z,51.69
2022-11-01T00:03:51.364Z,51.71
2022-11-01T00:04:51.425Z,51.72
2022-11-01T00:05:51.490Z,51.72
2022-11-01T00:06:51.599Z,51.70
2022-11-01T00:07:51.663Z,51.67
2022-11-01T00:08:51.711Z,51.68
2022-11-01T00:09:51.810Z,51.70
2022-11-01T00:10:51.914Z,51.70
2022-11-01T00:11:51.978Z,51.68
2022-11-01T00:12:52.169Z,51.69
2022-11-01T00:13:52.136Z,51.70
2022-11-01T00:14:52.223Z,51.71
2022-11-01T00:15:52.269Z,51.72
2022-11-01T00:16:52.363Z,51.76
2022-11-01T00:17:52.451Z,51.74
2022-11-01T00:18:52.663Z,51.73
2022-11-01T00:19:52.603Z,51.73
2022-11-01T00:20:58.662Z,51.75
2022-11-01T00:21:52.788Z,51.78
2022-11-01T00:22:52.889Z,51.80
2022-11-01T00:23:52.968Z,51.78
2022-11-01T00:24:54.913Z,51.75
2022-11-01T00:25:53.178Z,51.79
2022-11-01T00:26:53.231Z,51.81
2022-11-01T00:27:53.348Z,51.76
2022-11-01T00:28:53.383Z,51.76
2022-11-01T00:29:53.598Z,51.78
2022-11-01T00:30:53.588Z,51.76
2022-11-01T00:31:53.673Z,51.77
2022-11-01T00:32:53.784Z,51.76
2022-11-01T00:33:53.869Z,51.75
2022-11-01T00:34:53.952Z,51.78
2022-11-01T00:35:54.073Z,51.79
2022-11-01T00:36:54.150Z,51.79
2022-11-01T00:37:54.192Z,51.79
2022-11-01T00:38:54.347Z,51.77
2022-11-01T00:39:54.351Z,51.77
2022-11-01T00:40:54.424Z,51.78
2022-11-01T00:41:54.640Z,51.81
2022-11-01T00:42:54.574Z,51.80
2022-11-01T00:43:54.659Z,51.80
2022-11-01T00:44:54.724Z,51.84
2022-11-01T00:45:54.832Z,51.81
2022-11-01T00:46:54.909Z,51.81
2022-11-01T00:47:54.986Z,51.80
2022-11-01T00:48:55.052Z,51.80
2022-11-01T00:49:55.130Z,51.84
2022-11-01T00:50:55.223Z,51.84
2022-11-01T00:52:01.314Z,51.82
2022-11-01T00:52:55.406Z,51.88
2022-11-01T00:53:55.635Z,51.87
2022-11-01T00:54:55.600Z,51.88
2022-11-01T00:55:55.705Z,51.87
2022-11-01T00:56:55.774Z,51.85
2022-11-01T00:57:55.872Z,51.85
2022-11-01T00:58:55.967Z,51.85
2022-11-01T00:59:56.067Z,51.89
2022-11-01T01:00:56.176Z,51.90
2022-11-01T01:01:56.329Z,51.91
2022-11-01T01:02:56.294Z,51.90
2022-11-01T01:03:56.404Z,51.91
2022-11-01T01:04:56.460Z,51.91
2022-11-01T01:05:56.651Z,51.87
2022-11-01T01:06:56.627Z,51.87
2022-11-01T01:07:56.732Z,51.89
2022-11-01T01:08:56.817Z,51.89
2022-11-01T01:09:56.929Z,51.88
2022-11-01T01:10:57.001Z,51.88
2022-11-01T01:11:57.127Z,51.90
2022-11-01T01:12:57.192Z,51.91
2022-11-01T01:13:57.275Z,51.92
2022-11-01T01:14:57.383Z,51.92
2022-11-01T01:15:57.457Z,51.92
2022-11-01T01:16:57.563Z,51.92
2022-11-01T01:17:57.656Z,51.91
2022-11-01T01:18:57.731Z,51.91
2022-11-01T01:19:57.842Z,51.91
2022-11-01T01:20:57.883Z,51.92
2022-11-01T01:21:57.989Z,51.92
2022-11-01T01:23:04.141Z,51.94
2022-11-01T01:23:58.120Z,51.98
2022-11-01T01:24:58.238Z,51.95
2022-11-01T01:25:58.313Z,51.95
2022-11-01T01:26:58.399Z,51.94
2022-11-01T01:27:58.609Z,51.94
2022-11-01T01:28:58.601Z,51.95
2022-11-01T01:29:58.732Z,51.97
2022-11-01T01:30:58.740Z,51.97
2022-11-01T01:31:58.816Z,51.97
2022-11-01T01:32:58.940Z,51.97
2022-11-01T01:33:58.969Z,51.96
2022-11-01T01:34:59.075Z,51.93
2022-11-01T01:35:59.151Z,51.96
2022-11-01T01:36:59.248Z,51.97
2022-11-01T01:37:59.469Z,51.99
2022-11-01T01:38:59.422Z,51.96
2022-11-01T01:39:59.584Z,51.98
2022-11-01T01:40:59.530Z,51.99
2022-11-01T01:41:59.616Z,52.00
2022-11-01T01:42:59.725Z,51.99
2022-11-01T01:43:59.803Z,51.99
2022-11-01T01:44:59.933Z,52.00
2022-11-01T01:45:59.995Z,52.00
2022-11-01T01:47:00.085Z,52.01
2022-11-01T01:48:00.460Z,51.99
2022-11-01T01:49:00.215Z,51.98
2022-11-01T01:50:00.461Z,51.99
2022-11-01T01:51:00.401Z,52.01
2022-11-01T01:52:00.511Z,52.00
2022-11-01T01:53:00.826Z,52.05
2022-11-01T01:54:06.607Z,52.04
2022-11-01T01:55:00.724Z,52.06
2022-11-01T01:56:00.855Z,52.04
2022-11-01T01:57:00.919Z,52.04
2022-11-01T01:58:01.105Z,52.05
2022-11-01T01:59:01.046Z,52.03
2022-11-01T02:00:01.129Z,52.04
2022-11-01T02:01:01.267Z,52.04
2022-11-01T02:02:01.470Z,52.04
2022-11-01T02:03:01.809Z,52.03
2022-11-01T02:04:01.458Z,52.04
2022-11-01T02:05:01.525Z,52.02
2022-11-01T02:06:01.624Z,52.03
2022-11-01T02:07:01.704Z,52.03
2022-11-01T02:08:02.141Z,52.04
2022-11-01T02:09:01.916Z,52.08
2022-11-01T02:10:01.980Z,52.07
2022-11-01T02:11:02.070Z,52.06
2022-11-01T02:12:02.173Z,52.05
2022-11-01T02:13:02.214Z,52.07
2022-11-01T02:14:02.295Z,52.06
2022-11-01T02:15:02.422Z,52.06
2022-11-01T02:16:02.601Z,52.05
2022-11-01T02:17:07.041Z,52.06
2022-11-01T02:18:03.008Z,52.10
2022-11-01T02:19:02.789Z,52.08
2022-11-01T02:20:02.839Z,52.07
2022-11-01T02:21:02.954Z,52.08
2022-11-01T02:22:03.054Z,52.06
2022-11-01T02:23:03.426Z,52.08
2022-11-01T02:24:03.165Z,52.08
2022-11-01T02:25:09.231Z,52.09
2022-11-01T02:26:03.348Z,52.12
2022-11-01T02:27:03.415Z,52.11
2022-11-01T02:28:03.509Z,52.09
2022-11-01T02:29:05.753Z,52.10
2022-11-01T02:30:03.617Z,52.13
2022-11-01T02:31:03.722Z,52.11
2022-11-01T02:32:03.785Z,52.12
2022-11-01T02:33:04.181Z,52.09
2022-11-01T02:34:04.007Z,52.11
2022-11-01T02:35:04.075Z,52.09
2022-11-01T02:36:04.137Z,52.12
2022-11-01T02:37:04.194Z,52.12
2022-11-01T02:38:04.254Z,52.13
2022-11-01T02:39:04.413Z,52.15
2022-11-01T02:40:04.485Z,52.19
2022-11-01T02:41:04.485Z,52.15
2022-11-01T02:42:04.555Z,52.14
2022-11-01T02:43:05.087Z,52.16
2022-11-01T02:44:04.692Z,52.16
2022-11-01T02:45:04.842Z,52.14
2022-11-01T02:46:04.911Z,52.15
2022-11-01T02:47:04.976Z,52.13
2022-11-01T02:48:05.029Z,52.13
2022-11-01T02:49:05.140Z,52.12
2022-11-01T02:50:05.219Z,52.15
2022-11-01T02:51:05.307Z,52.16
2022-11-01T02:52:05.363Z,52.12
2022-11-01T02:53:05.447Z,52.12
2022-11-01T02:54:05.525Z,52.11
2022-11-01T02:55:05.643Z,52.12
2022-11-01T02:56:12.099Z,52.12
2022-11-01T02:57:05.755Z,52.15
2022-11-01T02:58:06.006Z,52.16
2022-11-01T02:59:05.936Z,52.13
2022-11-01T03:00:05.984Z,52.13
2022-11-01T03:01:06.290Z,52.13
2022-11-01T03:02:06.320Z,52.15
2022-11-01T03:03:06.234Z,52.15
2022-11-01T03:04:06.290Z,52.16
2022-11-01T03:05:06.378Z,52.15
2022-11-01T03:06:06.466Z,52.18
2022-11-01T03:07:06.558Z,52.16
2022-11-01T03:08:06.658Z,52.20
2022-11-01T03:09:06.719Z,52.19
2022-11-01T03:10:06.760Z,52.18
2022-11-01T03:11:06.862Z,52.18
2022-11-01T03:12:06.984Z,52.18
2022-11-01T03:13:07.162Z,52.15
2022-11-01T03:14:07.159Z,52.16
2022-11-01T03:15:07.223Z,52.18
2022-11-01T03:16:07.323Z,52.14
2022-11-01T03:17:07.417Z,52.14
2022-11-01T03:18:07.466Z,52.15
2022-11-01T03:19:07.557Z,52.18
2022-11-01T03:20:07.637Z,52.18
2022-11-01T03:21:07.683Z,52.16
2022-11-01T03:22:07.760Z,52.14
2022-11-01T03:23:07.847Z,52.16
2022-11-01T03:24:07.957Z,52.17
2022-11-01T03:25:08.008Z,52.17
2022-11-01T03:26:08.068Z,52.19
2022-11-01T03:27:14.124Z,52.18
2022-11-01T03:28:08.210Z,52.23
2022-11-01T03:29:08.335Z,52.25
2022-11-01T03:30:08.410Z,52.23
2022-11-01T03:31:08.483Z,52.20
2022-11-01T03:32:08.555Z,52.17
2022-11-01T03:33:08.658Z,52.19
2022-11-01T03:34:08.699Z,52.18
2022-11-01T03:35:08.785Z,52.15
2022-11-01T03:36:13.500Z,52.17
2022-11-01T03:37:09.007Z,52.18
2022-11-01T03:38:09.046Z,52.17
2022-11-01T03:39:09.113Z,52.19
2022-11-01T03:40:09.196Z,52.19
2022-11-01T03:41:09.308Z,52.19
2022-11-01T03:42:09.380Z,52.20
2022-11-01T03:43:09.453Z,52.19
2022-11-01T03:44:09.501Z,52.24
2022-11-01T03:45:09.663Z,52.22
2022-11-01T03:46:09.670Z,52.22
2022-11-01T03:47:09.788Z,52.19
2022-11-01T03:48:09.863Z,52.18
2022-11-01T03:49:09.914Z,52.18
2022-11-01T03:50:10.003Z,52.18
2022-11-01T03:51:10.069Z,52.20
2022-11-01T03:52:10.176Z,52.20
2022-11-01T03:53:10.255Z,52.20
2022-11-01T03:54:10.341Z,52.18
2022-11-01T03:55:10.405Z,52.18
2022-11-01T03:56:10.467Z,52.17
2022-11-01T03:57:10.565Z,52.18
2022-11-01T03:58:16.614Z,52.16
2022-11-01T03:59:10.837Z,52.20
2022-11-01T04:00:10.824Z,52.17
2022-11-01T04:01:11.042Z,52.18
2022-11-01T04:03:11.070Z,52.17
2022-11-01T04:04:11.157Z,52.17
2022-11-01T04:05:11.358Z,52.14
2022-11-01T04:06:11.342Z,52.13
2022-11-01T04:07:11.422Z,52.11
2022-11-01T04:08:11.541Z,52.16
2022-11-01T04:09:11.580Z,52.16
2022-11-01T04:10:11.774Z,52.18
2022-11-01T04:11:11.786Z,52.19
2022-11-01T04:12:11.848Z,52.17
2022-11-01T04:13:11.918Z,52.16
2022-11-01T04:14:12.004Z,52.18
2022-11-01T04:15:12.123Z,52.17
2022-11-01T04:16:12.209Z,52.19
2022-11-01T04:17:12.285Z,52.17
2022-11-01T04:18:12.363Z,52.18
2022-11-01T04:19:12.456Z,52.16
2022-11-01T04:20:12.504Z,52.16
2022-11-01T04:21:12.614Z,52.17
2022-11-01T04:22:12.693Z,52.18
2022-11-01T04:23:12.768Z,52.17
2022-11-01T04:24:12.841Z,52.19
2022-11-01T04:25:12.934Z,52.19
2022-11-01T04:26:13.005Z,52.18
2022-11-01T04:27:13.069Z,52.17
2022-11-01T04:28:13.153Z,52.17
2022-11-01T04:29:19.242Z,52.17
2022-11-01T04:30:13.318Z,52.23
2022-11-01T04:31:13.365Z,52.21
2022-11-01T04:32:13.492Z,52.20
2022-11-01T04:33:13.533Z,52.17
2022-11-01T04:34:13.635Z,52.19
2022-11-01T04:35:13.684Z,52.18
2022-11-01T04:36:13.798Z,52.17
2022-11-01T04:37:13.872Z,52.13
2022-11-01T04:38:13.932Z,52.14
2022-11-01T04:39:13.992Z,52.15
2022-11-01T04:40:14.095Z,52.14
2022-11-01T04:41:14.180Z,52.14
2022-11-01T04:42:14.269Z,52.14
2022-11-01T04:43:14.333Z,52.13
2022-11-01T04:44:14.533Z,52.14
2022-11-01T04:45:14.535Z,52.15
2022-11-01T04:46:14.546Z,52.15
2022-11-01T04:47:14.667Z,52.12
2022-11-01T04:48:14.724Z,52.14
2022-11-01T04:49:14.836Z,52.12
2022-11-01T04:50:14.918Z,52.13
2022-11-01T04:51:14.985Z,52.12
2022-11-01T04:52:15.028Z,52.12
2022-11-01T04:53:15.099Z,52.11
2022-11-01T04:54:15.171Z,52.11
2022-11-01T04:55:15.299Z,52.12
2022-11-01T04:56:15.398Z,52.13
2022-11-01T04:57:15.447Z,52.13
2022-11-01T04:58:15.545Z,52.12
2022-11-01T04:59:15.630Z,52.13
2022-11-01T05:00:21.703Z,52.15
2022-11-01T05:01:16.082Z,52.17
2022-11-01T05:02:15.900Z,52.14
2022-11-01T05:03:15.930Z,52.13
2022-11-01T05:04:16.011Z,52.12
2022-11-01T05:05:16.126Z,52.11
2022-11-01T05:06:16.224Z,52.10
2022-11-01T05:07:16.313Z,52.12
2022-11-01T05:08:16.415Z,52.12
2022-11-01T05:09:16.483Z,52.08
2022-11-01T05:10:16.549Z,52.09
2022-11-01T05:11:16.645Z,52.09
2022-11-01T05:12:16.719Z,52.14
2022-11-01T05:13:16.815Z,52.03
2022-11-01T05:14:16.857Z,51.95
2022-11-01T05:15:16.956Z,52.19
2022-11-01T05:16:19.836Z,51.93
2022-11-01T05:17:17.099Z,52.01
2022-11-01T05:18:17.183Z,51.98
2022-11-01T05:19:17.247Z,51.85
2022-11-01T05:20:17.293Z,51.79
2022-11-01T05:21:17.379Z,51.73
2022-11-01T05:22:17.461Z,51.65
2022-11-01T05:23:17.616Z,51.63
2022-11-01T05:24:17.664Z,51.60
2022-11-01T05:25:17.772Z,51.62
2022-11-01T05:26:17.824Z,51.57
2022-11-01T05:27:17.915Z,51.53
2022-11-01T05:28:17.981Z,51.56
2022-11-01T05:29:24.656Z,51.52
2022-11-01T05:30:18.114Z,51.53
2022-11-01T05:31:24.211Z,51.53
2022-11-01T05:32:18.290Z,51.51
2022-11-01T05:33:18.353Z,51.48
2022-11-01T05:34:18.432Z,51.43
2022-11-01T05:35:18.557Z,51.42
2022-11-01T05:36:18.622Z,51.40
2022-11-01T05:37:18.682Z,51.42
2022-11-01T05:38:18.781Z,51.42
2022-11-01T05:39:18.874Z,51.43
2022-11-01T05:40:18.948Z,51.37
2022-11-01T05:41:19.110Z,51.36
2022-11-01T05:42:19.069Z,51.35
2022-11-01T05:43:19.176Z,51.36
2022-11-01T05:44:19.214Z,51.41
2022-11-01T05:45:19.312Z,51.39
2022-11-01T05:46:19.450Z,51.36
2022-11-01T05:47:19.509Z,51.34
2022-11-01T05:48:19.586Z,51.32
2022-11-01T05:49:19.676Z,51.32
2022-11-01T05:50:19.787Z,51.31
2022-11-01T05:51:19.843Z,51.31
2022-11-01T05:52:19.951Z,51.28
2022-11-01T05:53:20.141Z,51.27
2022-11-01T05:54:20.081Z,51.30
2022-11-01T05:55:20.167Z,51.30
2022-11-01T05:56:20.256Z,51.27
2022-11-01T05:57:20.364Z,51.29
2022-11-01T05:58:20.404Z,51.26
2022-11-01T05:59:20.527Z,51.28
2022-11-01T06:00:20.591Z,51.24
2022-11-01T06:01:20.734Z,51.22
2022-11-01T06:02:26.787Z,51.24
2022-11-01T06:03:20.875Z,51.26
2022-11-01T06:04:20.978Z,51.22
2022-11-01T06:05:21.076Z,51.22
2022-11-01T06:06:21.115Z,51.21
2022-11-01T06:07:21.196Z,51.23
2022-11-01T06:08:21.311Z,51.19
2022-11-01T06:09:21.379Z,51.20
2022-11-01T06:10:21.455Z,51.20
2022-11-01T06:11:21.542Z,51.19
2022-11-01T06:12:21.597Z,51.19
2022-11-01T06:13:21.673Z,51.18
2022-11-01T06:14:21.762Z,51.19
2022-11-01T06:15:21.820Z,51.19
2022-11-01T06:16:21.899Z,51.17
2022-11-01T06:17:22.128Z,51.16
2022-11-01T06:18:22.639Z,51.12
2022-11-01T06:19:22.175Z,51.17
2022-11-01T06:20:22.219Z,51.11
2022-11-01T06:21:26.158Z,51.14
2022-11-01T06:22:22.411Z,51.20
2022-11-01T06:23:22.591Z,51.16
2022-11-01T06:24:22.676Z,51.14
2022-11-01T06:25:22.708Z,51.15
2022-11-01T06:26:23.099Z,51.13
2022-11-01T06:27:22.848Z,51.11
2022-11-01T06:28:22.992Z,51.10
2022-11-01T06:29:23.286Z,51.10
2022-11-01T06:30:23.105Z,51.10
2022-11-01T06:31:23.263Z,51.21
2022-11-01T06:32:23.345Z,51.10
2022-11-01T06:33:29.466Z,51.12
2022-11-01T06:34:23.443Z,51.11
2022-11-01T06:35:23.520Z,51.10
2022-11-01T06:36:23.568Z,51.09
2022-11-01T06:37:23.659Z,51.08
2022-11-01T06:38:23.772Z,51.07
2022-11-01T06:39:23.835Z,51.01
2022-11-01T06:40:23.920Z,51.08
2022-11-01T06:41:24.072Z,51.09
2022-11-01T06:42:24.063Z,51.05
2022-11-01T06:43:24.153Z,51.05
2022-11-01T06:44:24.240Z,51.03
2022-11-01T06:45:24.353Z,51.03
2022-11-01T06:46:24.413Z,51.05
2022-11-01T06:47:24.617Z,51.02
2022-11-01T06:48:24.572Z,51.02
2022-11-01T06:49:24.665Z,51.06
2022-11-01T06:50:24.748Z,51.05
2022-11-01T06:51:24.860Z,51.04
2022-11-01T06:52:24.907Z,51.05
2022-11-01T06:53:25.016Z,51.04
2022-11-01T06:54:25.051Z,51.08
2022-11-01T06:55:25.137Z,51.05
2022-11-01T06:56:25.226Z,51.04
2022-11-01T06:57:25.277Z,51.09
2022-11-01T06:58:25.392Z,51.04
2022-11-01T06:59:25.490Z,50.99
2022-11-01T07:00:25.532Z,51.04
2022-11-01T07:01:25.822Z,51.00
2022-11-01T07:02:29.643Z,51.03
2022-11-01T07:03:25.813Z,51.05
2022-11-01T07:04:32.375Z,51.03
2022-11-01T07:05:25.921Z,51.04
2022-11-01T07:06:26.019Z,51.04
2022-11-01T07:07:26.102Z,50.34
2022-11-01T07:08:26.187Z,49.61
2022-11-01T07:09:26.252Z,49.98
2022-11-01T07:10:26.363Z,50.27
2022-11-01T07:11:31.239Z,50.23
2022-11-01T07:12:26.530Z,49.68
2022-11-01T07:13:26.605Z,49.86
2022-11-01T07:14:26.669Z,49.63
2022-11-01T07:15:26.825Z,49.51
2022-11-01T07:16:26.825Z,49.62
2022-11-01T07:17:26.892Z,49.51
2022-11-01T07:18:26.956Z,49.64
2022-11-01T07:19:27.046Z,49.62
2022-11-01T07:20:27.137Z,49.65
2022-11-01T07:21:27.221Z,49.62
2022-11-01T07:22:27.317Z,49.70
2022-11-01T07:23:27.366Z,49.78
2022-11-01T07:24:27.426Z,49.95
2022-11-01T07:25:27.529Z,49.88
2022-11-01T07:26:27.716Z,49.79
2022-11-01T07:27:27.686Z,49.86
2022-11-01T07:28:27.774Z,49.65
2022-11-01T07:29:27.842Z,49.70
2022-11-01T07:30:27.978Z,49.79
2022-11-01T07:31:28.042Z,49.78
2022-11-01T07:32:28.248Z,49.96
2022-11-01T07:33:28.189Z,49.67
2022-11-01T07:34:28.264Z,49.74
2022-11-01T07:35:34.345Z,49.78
2022-11-01T07:36:28.457Z,49.92
2022-11-01T07:37:28.652Z,49.88
2022-11-01T07:38:28.588Z,49.87
2022-11-01T07:39:28.658Z,49.88
2022-11-01T07:40:28.757Z,49.97
2022-11-01T07:41:28.889Z,50.04
2022-11-01T07:42:28.973Z,49.83
2022-11-01T07:43:29.056Z,50.03
2022-11-01T07:44:29.109Z,49.95
2022-11-01T07:45:29.168Z,49.95
2022-11-01T07:46:29.267Z,49.91
2022-11-01T07:47:29.392Z,49.90
2022-11-01T07:48:29.835Z,49.94
2022-11-01T07:49:29.514Z,49.88
2022-11-01T07:50:29.592Z,49.85
2022-11-01T07:51:29.669Z,49.93
2022-11-01T07:52:29.709Z,49.93
2022-11-01T07:53:29.764Z,49.96
2022-11-01T07:54:29.854Z,49.88
2022-11-01T07:55:29.939Z,49.94
2022-11-01T07:56:30.002Z,50.03
2022-11-01T07:57:30.104Z,49.95
2022-11-01T07:58:30.183Z,50.05
2022-11-01T07:59:30.295Z,49.99
2022-11-01T08:00:30.472Z,50.04
2022-11-01T08:01:30.569Z,50.13
2022-11-01T08:02:30.592Z,50.07
2022-11-01T08:03:30.611Z,50.07
2022-11-01T08:04:30.714Z,50.15
2022-11-01T08:05:30.786Z,50.22
2022-11-01T08:06:36.844Z,50.17
2022-11-01T08:07:30.953Z,50.36
2022-11-01T08:08:30.993Z,50.46
2022-11-01T08:09:31.096Z,50.53
2022-11-01T08:10:31.136Z,50.51
2022-11-01T08:11:31.280Z,50.41
2022-11-01T08:12:31.287Z,50.61
2022-11-01T08:13:31.396Z,50.54
2022-11-01T08:14:31.476Z,50.47
2022-11-01T08:15:31.524Z,50.46
2022-11-01T08:16:31.661Z,50.55
2022-11-01T08:17:31.716Z,50.55
2022-11-01T08:18:31.779Z,50.48
2022-11-01T08:19:31.863Z,50.67
2022-11-01T08:20:31.941Z,50.69
2022-11-01T08:21:32.027Z,50.60
2022-11-01T08:22:32.182Z,50.60
2022-11-01T08:23:32.209Z,50.64
2022-11-01T08:24:32.252Z,50.70
2022-11-01T08:25:32.378Z,50.62
2022-11-01T08:26:32.429Z,50.71
2022-11-01T08:27:34.479Z,50.56
2022-11-01T08:28:32.622Z,50.70
2022-11-01T08:29:32.688Z,50.53
2022-11-01T08:30:32.730Z,50.72
2022-11-01T08:31:32.843Z,50.77
2022-11-01T08:32:32.920Z,50.67
2022-11-01T08:33:32.985Z,50.79
2022-11-01T08:34:33.069Z,50.53
2022-11-01T08:35:33.171Z,50.68
2022-11-01T08:36:33.225Z,50.66
2022-11-01T08:37:39.288Z,50.55
2022-11-01T08:38:33.441Z,50.56
2022-11-01T08:39:33.519Z,50.59
2022-11-01T08:40:33.557Z,50.59
2022-11-01T08:41:37.163Z,50.57
2022-11-01T08:42:33.730Z,50.61
2022-11-01T08:43:39.513Z,50.57
2022-11-01T08:44:33.876Z,50.64
2022-11-01T08:45:33.954Z,50.65
2022-11-01T08:46:33.995Z,50.67
2022-11-01T08:47:34.100Z,50.66
2022-11-01T08:48:34.182Z,50.71
2022-11-01T08:49:34.223Z,50.63
2022-11-01T08:50:34.438Z,50.61
2022-11-01T08:51:34.410Z,50.63
2022-11-01T08:52:34.472Z,50.67
2022-11-01T08:53:34.560Z,50.51
2022-11-01T08:54:34.646Z,50.68
2022-11-01T08:55:37.628Z,50.70
2022-11-01T08:56:34.929Z,50.68
2022-11-01T08:57:34.889Z,50.70
2022-11-01T08:58:34.957Z,50.77
2022-11-01T08:59:35.071Z,50.74
2022-11-01T09:00:35.132Z,50.69
2022-11-01T09:01:35.378Z,50.67
2022-11-01T09:02:35.493Z,50.71
2022-11-01T09:03:35.409Z,50.59
2022-11-01T09:04:35.490Z,50.46
2022-11-01T09:05:35.577Z,50.58
2022-11-01T09:06:36.441Z,50.60
2022-11-01T09:07:35.881Z,50.72
2022-11-01T09:08:41.838Z,50.74
2022-11-01T09:09:35.958Z,50.86
2022-11-01T09:10:36.013Z,50.77
2022-11-01T09:11:36.099Z,50.64
2022-11-01T09:12:36.288Z,50.66
2022-11-01T09:13:36.368Z,50.54
2022-11-01T09:14:36.351Z,50.51
2022-11-01T09:15:36.422Z,50.59
2022-11-01T09:16:36.493Z,50.37
2022-11-01T09:17:36.539Z,50.35
2022-11-01T09:18:36.749Z,50.33
2022-11-01T09:19:36.722Z,50.32
2022-11-01T09:20:36.785Z,50.35
2022-11-01T09:21:36.866Z,50.30
2022-11-01T09:22:36.980Z,50.32
2022-11-01T09:23:37.058Z,50.28
2022-11-01T09:24:37.233Z,50.40
2022-11-01T09:25:37.166Z,50.45
2022-11-01T09:26:37.243Z,50.53
2022-11-01T09:27:37.350Z,50.45
2022-11-01T09:28:37.391Z,50.52
2022-11-01T09:29:37.596Z,50.50
2022-11-01T09:30:45.128Z,50.57
2022-11-01T09:31:37.618Z,50.57
2022-11-01T09:32:37.698Z,50.65
2022-11-01T09:33:37.798Z,50.68
2022-11-01T09:34:37.894Z,50.71
2022-11-01T09:35:38.111Z,50.79
2022-11-01T09:36:38.045Z,50.73
2022-11-01T09:37:38.139Z,50.78
2022-11-01T09:38:38.202Z,50.72
2022-11-01T09:39:44.254Z,50.72
2022-11-01T09:40:38.399Z,50.79
2022-11-01T09:41:38.546Z,50.81
2022-11-01T09:42:38.516Z,50.85
2022-11-01T09:43:38.626Z,50.81
2022-11-01T09:44:38.651Z,50.86
2022-11-01T09:45:38.739Z,50.82
2022-11-01T09:46:38.828Z,50.87
2022-11-01T09:47:39.016Z,50.84
2022-11-01T09:48:39.006Z,50.84
2022-11-01T09:49:39.074Z,50.81
2022-11-01T09:50:39.133Z,50.77
2022-11-01T09:51:39.210Z,50.72
2022-11-01T09:52:39.311Z,50.65
2022-11-01T09:53:39.361Z,50.74
2022-11-01T09:54:39.459Z,50.60
2022-11-01T09:55:39.533Z,50.62
2022-11-01T09:56:39.593Z,50.56
2022-11-01T09:57:39.708Z,50.61
2022-11-01T09:58:39.815Z,50.63
2022-11-01T09:59:39.874Z,50.74
2022-11-01T10:00:40.018Z,50.73
2022-11-01T10:01:40.123Z,50.68
2022-11-01T10:02:40.116Z,50.61
2022-11-01T10:03:40.824Z,50.67
2022-11-01T10:04:40.378Z,50.70
2022-11-01T10:05:40.330Z,50.72
2022-11-01T10:06:40.478Z,50.68
2022-11-01T10:07:40.552Z,50.67
2022-11-01T10:08:40.621Z,50.65
2022-11-01T10:09:40.845Z,50.65
2022-11-01T10:10:46.761Z,50.63
2022-11-01T10:11:40.874Z,50.72
2022-11-01T10:12:40.919Z,50.65
2022-11-01T10:13:41.003Z,50.65
2022-11-01T10:14:41.129Z,50.65
2022-11-01T10:15:41.215Z,50.62
2022-11-01T10:16:41.309Z,50.50
2022-11-01T10:17:41.383Z,50.37
2022-11-01T10:18:41.478Z,50.31
2022-11-01T10:19:41.558Z,50.28
2022-11-01T10:20:41.666Z,50.38
2022-11-01T10:21:41.722Z,50.35
2022-11-01T10:22:41.803Z,50.33
2022-11-01T10:23:41.916Z,50.29
2022-11-01T10:24:41.953Z,50.29
2022-11-01T10:25:42.055Z,50.32
2022-11-01T10:26:42.136Z,50.27
2022-11-01T10:27:42.228Z,50.29
2022-11-01T10:28:42.317Z,50.28
2022-11-01T10:29:42.416Z,50.25
2022-11-01T10:30:42.501Z,50.32
2022-11-01T10:31:42.670Z,50.27
2022-11-01T10:32:42.672Z,50.32
2022-11-01T10:33:42.899Z,50.24
2022-11-01T10:34:42.872Z,50.21
2022-11-01T10:35:42.946Z,50.31
2022-11-01T10:36:43.027Z,50.40
2022-11-01T10:37:51.960Z,50.24
2022-11-01T10:39:29.877Z,50.48
2022-11-01T10:40:00.160Z,50.32
2022-11-01T10:40:43.389Z,50.34
2022-11-01T10:41:49.542Z,50.26
2022-11-01T10:42:43.597Z,50.28
2022-11-01T10:43:43.602Z,50.30
2022-11-01T10:44:43.689Z,50.28
2022-11-01T10:45:47.602Z,50.26
2022-11-01T10:46:43.839Z,50.26
2022-11-01T10:47:43.919Z,50.26
2022-11-01T10:48:44.014Z,50.26
2022-11-01T10:50:04.829Z,50.31
2022-11-01T10:50:44.135Z,50.28
2022-11-01T10:51:44.219Z,50.29
2022-11-01T10:52:44.300Z,50.26
2022-11-01T10:53:44.390Z,50.28
2022-11-01T10:54:44.550Z,50.26
2022-11-01T10:55:44.560Z,50.34
2022-11-01T10:56:44.628Z,50.31
2022-11-01T10:57:44.702Z,50.28
2022-11-01T10:58:44.786Z,50.30
2022-11-01T10:59:44.878Z,50.29
2022-11-01T11:00:45.038Z,50.28
2022-11-01T11:01:45.195Z,50.25
2022-11-01T11:02:45.122Z,50.61
2022-11-01T11:03:45.214Z,50.22
2022-11-01T11:04:45.302Z,50.52
2022-11-01T11:05:45.383Z,50.66
2022-11-01T11:06:45.594Z,50.64
2022-11-01T11:07:45.568Z,50.52
2022-11-01T11:08:45.682Z,50.32
2022-11-01T11:09:45.921Z,50.30
2022-11-01T11:10:45.818Z,50.32
2022-11-01T11:11:45.899Z,50.31
2022-11-01T11:12:52.459Z,50.28
2022-11-01T11:13:46.096Z,50.41
2022-11-01T11:14:46.166Z,50.30
2022-11-01T11:15:46.245Z,50.28
2022-11-01T11:16:46.325Z,50.36
2022-11-01T11:17:46.416Z,50.32
2022-11-01T11:18:46.591Z,50.30
2022-11-01T11:19:46.566Z,50.37
2022-11-01T11:20:46.631Z,50.32
2022-11-01T11:21:46.742Z,50.32
2022-11-01T11:22:46.817Z,50.47
2022-11-01T11:23:46.909Z,50.39
2022-11-01T11:24:47.030Z,50.34
2022-11-01T11:25:47.068Z,50.38
2022-11-01T11:26:49.811Z,50.38
2022-11-01T11:27:47.253Z,50.38
2022-11-01T11:28:47.348Z,50.66
2022-11-01T11:29:47.391Z,50.31
2022-11-01T11:30:47.508Z,50.40
2022-11-01T11:31:47.556Z,50.35
2022-11-01T11:32:47.650Z,50.26
2022-11-01T11:33:47.702Z,50.56
2022-11-01T11:34:47.780Z,50.33
2022-11-01T11:35:47.890Z,50.28
2022-11-01T11:36:47.985Z,50.32
2022-11-01T11:37:48.031Z,50.64
2022-11-01T11:38:48.114Z,50.52
2022-11-01T11:39:48.181Z,50.66
2022-11-01T11:40:48.260Z,50.57
2022-11-01T11:41:48.368Z,50.35
2022-11-01T11:42:48.553Z,50.34
2022-11-01T11:43:54.514Z,50.32
2022-11-01T11:44:52.008Z,50.36
2022-11-01T11:45:48.702Z,50.37
2022-11-01T11:46:48.790Z,50.36
2022-11-01T11:47:48.879Z,50.30
2022-11-01T11:48:49.078Z,50.33
2022-11-01T11:49:49.038Z,50.35
2022-11-01T11:50:49.128Z,50.46
2022-11-01T11:51:49.229Z,50.32
2022-11-01T11:52:49.338Z,50.31
2022-11-01T11:53:49.496Z,50.27
2022-11-01T11:54:49.458Z,50.30
2022-11-01T11:55:49.537Z,50.30
2022-11-01T11:56:49.639Z,50.32
2022-11-01T11:57:49.724Z,50.39
2022-11-01T11:58:49.802Z,50.24
2022-11-01T11:59:49.922Z,50.29
2022-11-01T12:00:49.984Z,50.24
2022-11-01T12:01:50.163Z,50.33
2022-11-01T12:02:50.237Z,50.41
2022-11-01T12:03:50.238Z,50.39
2022-11-01T12:04:50.352Z,50.36
2022-11-01T12:05:50.445Z,50.35
2022-11-01T12:06:50.514Z,50.35
2022-11-01T12:07:50.589Z,50.32
2022-11-01T12:08:50.682Z,50.28
2022-11-01T12:09:50.763Z,50.28
2022-11-01T12:10:50.852Z,50.32
2022-11-01T12:11:50.892Z,50.31
2022-11-01T12:12:51.014Z,50.23
2022-11-01T12:13:51.057Z,50.28
2022-11-01T12:14:57.117Z,50.27
2022-11-01T12:15:51.217Z,50.28
2022-11-01T12:16:51.326Z,50.28
2022-11-01T12:17:51.365Z,50.38
2022-11-01T12:18:51.443Z,50.40
2022-11-01T12:19:51.526Z,50.37
2022-11-01T12:20:51.616Z,50.35
2022-11-01T12:21:51.800Z,50.35
2022-11-01T12:22:51.773Z,50.55
2022-11-01T12:23:51.868Z,50.48
2022-11-01T12:24:51.958Z,50.43
2022-11-01T12:25:52.034Z,50.43
2022-11-01T12:26:52.109Z,50.34
2022-11-01T12:27:52.292Z,50.48
2022-11-01T12:28:52.269Z,50.42
2022-11-01T12:29:52.351Z,50.41
2022-11-01T12:30:52.440Z,50.45
2022-11-01T12:31:52.572Z,50.54
2022-11-01T12:32:52.712Z,50.48
2022-11-01T12:33:52.731Z,50.44
2022-11-01T12:34:52.760Z,50.46
2022-11-01T12:35:52.844Z,50.42
2022-11-01T12:36:52.932Z,50.44
2022-11-01T12:37:53.041Z,50.49
2022-11-01T12:38:53.211Z,50.45
2022-11-01T12:39:53.194Z,50.49
2022-11-01T12:40:53.278Z,50.49
2022-11-01T12:41:53.387Z,50.52
2022-11-01T12:42:53.467Z,50.52
2022-11-01T12:43:53.655Z,50.51
2022-11-01T12:44:53.636Z,50.51
2022-11-01T12:45:59.700Z,50.49
2022-11-01T12:46:53.781Z,50.61
2022-11-01T12:47:53.868Z,50.58
2022-11-01T12:48:53.951Z,50.52
2022-11-01T12:49:54.130Z,50.47
2022-11-01T12:50:54.092Z,50.52
2022-11-01T12:51:54.233Z,50.63
2022-11-01T12:52:54.258Z,50.56
2022-11-01T12:53:54.377Z,50.56
2022-11-01T12:54:54.434Z,50.50